EHWO Airport Information

Runway Information
Runway 07 Length 7996 ft width 148 ft
Elevation 39 ft Threshold 0 ft Heading 69
Runway 25 Length 7996 ft Width 148 ft
Elevation 63 ft Threshold 0 ft Heading 249
Airport Frequencies
Type APP Name RAPCON WES Frequency 123.575 MHZ
Type ARR Name ARRIVAL Frequency 123.575 MHZ
Type TWR Name TWR Frequency 118.5 MHZ
Airport Navaids
Type TACAN Name Woensdrecht Frequency 115000 KHZ
Airport Weather Information & NOTAM
ADDS - METARS form results

(1107 UTC 18 October 2018)
Data provider http://aviationweather.gov/metar/data/
 
METAR text: EHWO 181055Z AUTO 03009KT 360V090 9999 BKN020 OVC024 16/11 Q1025 WHT 04008KT 9999 SCT020
Conditions at: EHWO (WOENSDRECHT RNLA, NL) observed 1055 UTC 18 October 2018
Temperature: 16.0°C (61°F)
Dewpoint: 11.0°C (52°F) [RH = 72%]
Pressure (altimeter): 30.27 inches Hg (1025.0 mb)
Winds: from the NNE (30 degrees) at 10 MPH (9 knots; 4.6 m/s)
Visibility: 6 or more miles (10+ km)
Ceiling: 2000 feet AGL
Clouds: broken clouds at 2000 feet AGL
overcast cloud deck at 2400 feet AGL
scattered clouds at 2000 feet AGL
Weather: no significant weather observed at this time

METAR text: EHWO 181035Z AUTO 03009KT 320V100 9999 SCT018 BKN023 BKN036 16/11 Q1025 WHT 04008KT 9999 SCT019 BECMG SCT022
Conditions at: EHWO (WOENSDRECHT RNLA, NL) observed 1035 UTC 18 October 2018
Temperature: 16.0°C (61°F)
Dewpoint: 11.0°C (52°F) [RH = 72%]
Pressure (altimeter): 30.27 inches Hg (1025.0 mb)
Winds: from the NNE (30 degrees) at 10 MPH (9 knots; 4.6 m/s)
Visibility: 6 or more miles (10+ km)
Ceiling: 2300 feet AGL
Clouds: scattered clouds at 1800 feet AGL
broken clouds at 2300 feet AGL
broken clouds at 3600 feet AGL
scattered clouds at 1900 feet AGL
Weather: no significant weather observed at this time

METAR text: EHWO 181031Z AUTO 03008KT 320V100 9999 FEW022 SCT032 16/12 Q1025 BLU 04008KT 9999 SCT019 BECMG SCT022
Conditions at: EHWO (WOENSDRECHT RNLA, NL) observed 1031 UTC 18 October 2018
Temperature: 16.0°C (61°F)
Dewpoint: 12.0°C (54°F) [RH = 77%]
Pressure (altimeter): 30.27 inches Hg (1025.0 mb)
Winds: from the NNE (30 degrees) at 9 MPH (8 knots; 4.1 m/s)
Visibility: 6 or more miles (10+ km)
Ceiling: at least 12,000 feet AGL
Clouds: few clouds at 2200 feet AGL
scattered clouds at 3200 feet AGL
scattered clouds at 1900 feet AGL
Weather: no significant weather observed at this time

METAR text: EHWO 181025Z AUTO 01009KT 330V070 9999 FEW016 BKN025 BKN028 15/11 Q1025 BLU 04009KT 9999 FEW014 SCT016 BECMG SCT022
Conditions at: EHWO (WOENSDRECHT RNLA, NL) observed 1025 UTC 18 October 2018
Temperature: 15.0°C (59°F)
Dewpoint: 11.0°C (52°F) [RH = 77%]
Pressure (altimeter): 30.27 inches Hg (1025.0 mb)
Winds: from the N (10 degrees) at 10 MPH (9 knots; 4.6 m/s)
Visibility: 6 or more miles (10+ km)
Ceiling: 2500 feet AGL
Clouds: few clouds at 1600 feet AGL
broken clouds at 2500 feet AGL
broken clouds at 2800 feet AGL
few clouds at 1400 feet AGL
Weather: no significant weather observed at this time

METAR text: EHWO 181010Z AUTO 04010KT 010V100 9999 OVC015 16/12 Q1025 WHT 04009KT 9999 FEW014 SCT016 BECMG SCT022
Conditions at: EHWO (WOENSDRECHT RNLA, NL) observed 1010 UTC 18 October 2018
Temperature: 16.0°C (61°F)
Dewpoint: 12.0°C (54°F) [RH = 77%]
Pressure (altimeter): 30.27 inches Hg (1025.0 mb)
Winds: from the NE (40 degrees) at 12 MPH (10 knots; 5.1 m/s)
Visibility: 6 or more miles (10+ km)
Ceiling: 1500 feet AGL
Clouds: overcast cloud deck at 1500 feet AGL
few clouds at 1400 feet AGL
scattered clouds at 1600 feet AGL
Weather: no significant weather observed at this time

Forecast for: EHWO (WOENSDRECHT RNLA, NL)
Text: TAF EHWO 180829Z 1809/1821 03008KT 9999 BKN014
Forecast period: 0900 to 2100 UTC 18 October 2018
Forecast type: FROM: standard forecast or significant change
Winds: from the NNE (30 degrees) at 9 MPH (8 knots; 4.1 m/s)
Visibility: 6 or more miles 10+ km)
Ceiling: 1400 feet AGL
Clouds: broken clouds at 1400 feet AGL
Weather: no significant weather forecast for this period
Text: BECMG 1809/1811 SCT020
Forecast period: 0900 to 2100 UTC 18 October 2018
Forecast type: BECOMING: Conditions expected to become as follows by 1100 UTC 18 October 2018
Winds: from the NNE (30 degrees) at 9 MPH (8 knots; 4.1 m/s)
Visibility: 6 or more miles 10+ km)
Ceiling: at least 12,000 feet AGL
Clouds: scattered clouds at 2000 feet AGL
Weather: no significant weather forecast for this period